Terminal Aerodrome Forecast
Issued by NWS Wilmington, NC

Home | Current Version | Previous Version | Text Only | Print | Product List | Glossary On
Versions: 1 2 3 4 5 6 7 8 9 10 11 12 13 14 15 16 17 18 19 20 21
000
FTUS42 KILM 312320
TAFILM
TAF
KILM 312320Z 0100/0124 03003KT P6SM VCSH SCT030 BKN100
      TEMPO 0100/0101 5SM -SHRA BKN030
     FM010800 01003KT P6SM BKN005
     FM011330 36008KT P6SM SCT025 BKN100
     FM011600 06007KT 4SM SHRA BKN030=

USA.gov is the U.S. government's official web portal to all federal, state and local government web resources and services.